createdAt,value
2023-01-27T00:04:20.646Z,81.70
2023-01-27T00:09:21.969Z,81.97
2023-01-27T00:14:23.446Z,82.20
2023-01-27T00:19:26.982Z,82.24
2023-01-27T00:24:37.550Z,82.40
2023-01-27T00:29:40.427Z,82.11
2023-01-27T00:34:41.800Z,82.83
2023-01-27T00:39:43.172Z,82.71
2023-01-27T00:45:04.440Z,82.79
2023-01-27T00:50:09.280Z,83.60
2023-01-27T00:55:11.419Z,83.52
2023-01-27T01:00:14.358Z,84.24
2023-01-27T01:05:15.963Z,83.21
2023-01-27T01:10:17.465Z,82.46
2023-01-27T01:15:18.751Z,82.44
2023-01-27T01:20:20.220Z,82.43
2023-01-27T01:25:21.792Z,82.43
2023-01-27T01:30:26.175Z,82.37
2023-01-27T01:35:27.608Z,82.18
2023-01-27T01:40:29.028Z,82.25
2023-01-27T01:45:36.833Z,82.08
2023-01-27T01:50:40.910Z,82.12
2023-01-27T01:55:42.724Z,82.24
2023-01-27T02:00:45.504Z,82.24
2023-01-27T02:05:47.615Z,82.53
2023-01-27T02:10:49.547Z,82.21
2023-01-27T02:15:53.996Z,82.10
2023-01-27T02:20:56.160Z,82.17
2023-01-27T02:26:38.550Z,82.05
2023-01-27T02:31:40.567Z,81.71
2023-01-27T02:36:48.831Z,82.20
2023-01-27T02:41:54.810Z,82.28
2023-01-27T02:46:56.335Z,82.56
2023-01-27T02:51:57.771Z,82.27
2023-01-27T02:56:59.662Z,81.84
2023-01-27T03:02:01.081Z,81.96
2023-01-27T03:07:02.562Z,82.06
2023-01-27T03:12:22.518Z,81.92
2023-01-27T03:17:42.761Z,82.55
2023-01-27T03:22:44.441Z,82.78
2023-01-27T03:27:45.789Z,83.16
2023-01-27T03:32:54.240Z,83.16
2023-01-27T03:38:14.074Z,83.05
2023-01-27T03:43:33.859Z,82.91
2023-01-27T03:48:36.439Z,82.46
2023-01-27T03:53:38.436Z,82.52
2023-01-27T03:58:41.542Z,82.47
2023-01-27T04:04:02.013Z,82.59
2023-01-27T04:09:05.183Z,82.42
2023-01-27T04:14:07.639Z,82.11
2023-01-27T04:19:10.919Z,82.09
2023-01-27T04:24:22.769Z,81.94
2023-01-27T04:29:27.488Z,81.84
2023-01-27T04:34:29.121Z,81.78
2023-01-27T04:39:30.579Z,81.49
2023-01-27T04:44:32.086Z,81.44
2023-01-27T04:49:33.411Z,81.64
2023-01-27T04:54:34.896Z,81.46
2023-01-27T04:59:36.200Z,81.42
2023-01-27T05:04:37.716Z,81.27
2023-01-27T05:09:39.151Z,81.13
2023-01-27T05:14:40.572Z,80.83
2023-01-27T05:19:41.953Z,81.09
2023-01-27T05:24:44.628Z,80.67
2023-01-27T05:29:46.544Z,80.63
2023-01-27T05:34:48.067Z,80.36
2023-01-27T05:39:49.414Z,80.44
2023-01-27T05:44:50.775Z,80.42
2023-01-27T05:49:52.174Z,79.73
2023-01-27T05:54:53.478Z,80.17
2023-01-27T05:59:54.915Z,80.09
2023-01-27T06:04:56.352Z,79.96
2023-01-27T06:09:57.765Z,79.54
2023-01-27T06:15:00.425Z,79.86
2023-01-27T06:20:01.761Z,79.70
2023-01-27T06:25:03.235Z,79.56
2023-01-27T06:30:05.205Z,79.68
2023-01-27T06:35:07.091Z,79.47
2023-01-27T06:40:09.344Z,79.46
2023-01-27T06:45:12.436Z,80.13
2023-01-27T06:50:14.132Z,81.44
2023-01-27T06:55:16.805Z,80.20
2023-01-27T07:00:18.763Z,80.05
2023-01-27T07:05:20.151Z,80.43
2023-01-27T07:10:21.688Z,80.44
2023-01-27T07:15:23.032Z,80.59
2023-01-27T07:20:28.130Z,80.76
2023-01-27T07:25:32.816Z,80.54
2023-01-27T07:30:34.497Z,80.43
2023-01-27T07:35:37.237Z,80.59
2023-01-27T07:40:38.754Z,80.33
2023-01-27T07:45:40.399Z,80.28
2023-01-27T07:50:42.087Z,80.55
2023-01-27T07:55:43.623Z,80.48
2023-01-27T08:00:45.013Z,79.93
2023-01-27T08:05:46.786Z,79.81
2023-01-27T08:10:49.449Z,79.49
2023-01-27T08:15:56.055Z,79.25
2023-01-27T08:21:00.355Z,79.49
2023-01-27T08:26:04.613Z,78.83
2023-01-27T08:31:12.120Z,78.57
2023-01-27T08:36:17.008Z,78.45
2023-01-27T08:41:25.064Z,77.76
2023-01-27T08:46:27.061Z,77.85
2023-01-27T08:51:28.953Z,77.89
2023-01-27T08:56:30.697Z,78.85
2023-01-27T09:01:32.257Z,78.46
2023-01-27T09:06:33.791Z,78.44
2023-01-27T09:11:36.901Z,77.95
2023-01-27T09:16:38.381Z,78.28
2023-01-27T09:21:39.884Z,77.90
2023-01-27T09:26:41.394Z,77.81
2023-01-27T09:31:43.107Z,78.24
2023-01-27T09:36:50.499Z,78.03
2023-01-27T09:42:01.254Z,77.90
2023-01-27T09:47:27.580Z,77.71
2023-01-27T09:52:47.861Z,77.96
2023-01-27T09:58:09.728Z,78.00
2023-01-27T10:03:49.010Z,77.57
2023-01-27T10:09:18.517Z,77.63
2023-01-27T10:14:40.389Z,77.85
2023-01-27T10:19:44.474Z,77.91
2023-01-27T10:24:59.545Z,77.45
2023-01-27T10:30:14.372Z,77.03
2023-01-27T10:35:40.892Z,76.60
2023-01-27T10:40:56.893Z,77.12
2023-01-27T10:46:01.569Z,76.46
2023-01-27T10:51:11.653Z,76.63
2023-01-27T10:56:37.115Z,76.93
2023-01-27T11:01:57.434Z,76.36
2023-01-27T11:06:59.539Z,75.68
2023-01-27T11:12:05.213Z,75.22
2023-01-27T11:17:18.453Z,74.13
2023-01-27T11:22:24.128Z,74.14
2023-01-27T11:27:50.437Z,74.22
2023-01-27T11:33:11.760Z,73.04
2023-01-27T11:38:16.574Z,73.36
2023-01-27T11:43:23.642Z,72.42
2023-01-27T11:48:33.960Z,72.52
2023-01-27T11:53:39.773Z,72.65
2023-01-27T11:58:49.423Z,72.64
2023-01-27T12:04:22.206Z,72.42
2023-01-27T12:09:30.518Z,72.36
2023-01-27T12:14:32.237Z,71.82
2023-01-27T12:19:41.036Z,72.41
2023-01-27T12:24:50.130Z,71.43
2023-01-27T12:29:56.891Z,71.33
2023-01-27T12:34:58.799Z,71.64
2023-01-27T12:40:03.995Z,71.96
2023-01-27T12:45:20.319Z,71.51
2023-01-27T12:50:27.988Z,71.88
2023-01-27T12:55:35.855Z,71.63
2023-01-27T13:00:37.784Z,72.01
2023-01-27T13:05:43.256Z,71.63
2023-01-27T13:10:53.912Z,71.17
2023-01-27T13:16:19.036Z,70.53
2023-01-27T13:21:24.723Z,68.01
2023-01-27T13:26:30.632Z,67.84
2023-01-27T13:32:09.267Z,69.49
2023-01-27T13:37:20.639Z,69.04
2023-01-27T13:42:46.655Z,68.68
2023-01-27T13:48:09.728Z,69.06
2023-01-27T13:53:14.977Z,69.14
2023-01-27T13:58:32.719Z,69.75
2023-01-27T14:03:47.569Z,68.76
2023-01-27T14:08:55.145Z,68.74
2023-01-27T14:14:15.083Z,69.25
2023-01-27T14:19:33.409Z,69.57
2023-01-27T14:25:06.176Z,69.16
2023-01-27T14:30:22.719Z,68.24
2023-01-27T14:35:38.983Z,67.71
2023-01-27T14:41:18.053Z,67.84
2023-01-27T14:46:22.831Z,67.75
2023-01-27T14:51:36.237Z,67.43
2023-01-27T14:57:06.314Z,67.59
2023-01-27T15:02:13.829Z,67.89
2023-01-27T15:07:43.784Z,67.61
2023-01-27T15:13:19.981Z,67.57
2023-01-27T15:18:44.719Z,67.51
2023-01-27T15:23:58.429Z,67.94
2023-01-27T15:29:00.655Z,68.04
2023-01-27T15:34:22.589Z,68.24
2023-01-27T15:39:32.387Z,68.09
2023-01-27T15:45:03.017Z,68.43
2023-01-27T15:50:06.767Z,68.01
2023-01-27T15:55:23.244Z,68.17
2023-01-27T16:00:33.327Z,68.38
2023-01-27T16:05:45.525Z,68.46
2023-01-27T16:10:47.018Z,68.42
2023-01-27T16:15:49.085Z,68.83
2023-01-27T16:21:06.917Z,68.69
2023-01-27T16:26:20.448Z,68.46
2023-01-27T16:31:30.728Z,68.44
2023-01-27T16:36:35.309Z,68.65
2023-01-27T16:41:39.940Z,69.44
2023-01-27T16:46:55.643Z,69.30
2023-01-27T16:52:01.521Z,69.48
2023-01-27T16:57:05.205Z,69.72
2023-01-27T17:02:19.973Z,70.30
2023-01-27T17:07:21.966Z,70.60
2023-01-27T17:12:43.046Z,70.91
2023-01-27T17:17:44.720Z,71.03
2023-01-27T17:22:48.939Z,71.08
2023-01-27T17:27:50.618Z,71.76
2023-01-27T17:32:57.192Z,72.22
2023-01-27T17:38:51.329Z,72.44
2023-01-27T17:43:53.777Z,73.02
2023-01-27T17:49:01.714Z,74.76
2023-01-27T17:54:16.411Z,74.80
2023-01-27T17:59:21.176Z,75.36
2023-01-27T18:04:24.068Z,75.68
2023-01-27T18:09:27.405Z,75.90
2023-01-27T18:14:34.028Z,76.16
2023-01-27T18:19:35.403Z,77.15
2023-01-27T18:24:38.279Z,77.40
2023-01-27T18:29:39.821Z,76.96
2023-01-27T18:34:50.193Z,79.63
2023-01-27T18:39:51.766Z,75.33
2023-01-27T18:44:53.865Z,75.42
2023-01-27T18:50:11.402Z,75.37
2023-01-27T18:55:19.103Z,75.43
2023-01-27T19:00:23.527Z,75.45
2023-01-27T19:05:34.953Z,76.12
2023-01-27T19:10:36.518Z,76.54
2023-01-27T19:15:41.398Z,76.09
2023-01-27T19:20:43.128Z,75.78
2023-01-27T19:25:49.250Z,75.21
2023-01-27T19:30:50.632Z,75.73
2023-01-27T19:36:00.659Z,76.24
2023-01-27T19:41:02.264Z,76.47
2023-01-27T19:46:13.499Z,76.32
2023-01-27T19:51:15.308Z,76.25
2023-01-27T19:56:20.265Z,76.25
2023-01-27T20:01:23.234Z,76.80
2023-01-27T20:06:27.894Z,77.37
2023-01-27T20:11:32.393Z,77.10
2023-01-27T20:16:34.820Z,77.21
2023-01-27T20:21:36.168Z,76.87
2023-01-27T20:26:37.833Z,76.24
2023-01-27T20:31:39.470Z,75.95
2023-01-27T20:36:41.275Z,75.30
2023-01-27T20:41:42.648Z,76.52
2023-01-27T20:46:44.100Z,75.70
2023-01-27T20:51:45.473Z,75.15
2023-01-27T20:56:46.969Z,75.33
2023-01-27T21:01:48.449Z,75.39
2023-01-27T21:06:49.771Z,75.54
2023-01-27T21:11:51.123Z,75.09
2023-01-27T21:16:52.520Z,75.57
2023-01-27T21:21:56.378Z,75.39
2023-01-27T21:26:57.662Z,75.70
2023-01-27T21:31:59.411Z,75.53
2023-01-27T21:37:00.838Z,75.60
2023-01-27T21:42:02.266Z,74.95
2023-01-27T21:47:05.590Z,75.39
2023-01-27T21:52:06.938Z,75.16
2023-01-27T21:57:08.254Z,75.85
2023-01-27T22:02:14.098Z,75.48
2023-01-27T22:07:17.280Z,76.00
2023-01-27T22:12:18.765Z,76.05
2023-01-27T22:17:20.354Z,75.54
2023-01-27T22:22:21.805Z,74.71
2023-01-27T22:27:24.395Z,75.23
2023-01-27T22:32:25.798Z,75.10
2023-01-27T22:37:27.278Z,76.42
2023-01-27T22:42:28.896Z,76.11
2023-01-27T22:47:30.191Z,77.04
2023-01-27T22:52:35.281Z,76.83
2023-01-27T22:57:36.688Z,76.84
2023-01-27T23:02:38.038Z,76.61
2023-01-27T23:07:39.409Z,76.68
2023-01-27T23:12:40.762Z,76.25
2023-01-27T23:17:42.245Z,76.32
2023-01-27T23:22:43.674Z,76.18
2023-01-27T23:27:45.267Z,75.57
2023-01-27T23:32:46.630Z,75.52
2023-01-27T23:37:48.108Z,75.76
2023-01-27T23:42:49.497Z,76.53
2023-01-27T23:47:50.819Z,75.94
2023-01-27T23:52:52.309Z,75.70
2023-01-27T23:57:53.981Z,75.81
